createdAt,value
2022-08-02T13:34:12.536Z,99723.62
2022-08-02T13:35:18.133Z,99723.75
2022-08-02T13:36:19.588Z,99728.78
2022-08-02T13:37:22.293Z,99721.30
2022-08-02T13:38:27.404Z,99725.95
2022-08-02T13:39:31.777Z,99720.88
2022-08-02T13:40:49.210Z,99723.42
2022-08-02T13:41:39.137Z,99725.05
2022-08-02T13:42:41.832Z,99724.99
2022-08-02T13:43:53.450Z,99724.22
2022-08-02T13:44:48.638Z,99728.19
2022-08-02T13:45:51.078Z,99726.67
2022-08-02T13:46:53.475Z,99728.69
2022-08-02T13:48:04.586Z,99722.30
2022-08-02T13:48:59.872Z,99726.22
2022-08-02T13:50:03.050Z,99732.13
2022-08-02T13:51:06.213Z,99723.62
2022-08-02T13:52:08.732Z,99723.69
2022-08-02T13:53:11.045Z,99722.82
2022-08-02T13:54:13.553Z,99720.28
2022-08-02T13:55:16.017Z,99721.02
2022-08-02T13:56:18.570Z,99719.69
2022-08-02T13:57:20.849Z,99733.64
2022-08-02T13:58:23.070Z,99716.55
2022-08-02T13:59:54.510Z,99730.06
2022-08-02T14:00:34.666Z,99724.80
2022-08-02T14:01:34.979Z,99722.61
2022-08-02T14:02:40.424Z,99722.30
2022-08-02T14:04:08.607Z,99724.58
2022-08-02T14:04:46.396Z,99722.61
2022-08-02T14:05:49.108Z,99714.55
2022-08-02T14:06:51.315Z,99720.98
2022-08-02T14:07:53.480Z,99716.92
2022-08-02T14:08:55.945Z,99698.64
2022-08-02T14:09:58.180Z,99705.25
2022-08-02T14:11:00.399Z,99706.64
2022-08-02T14:12:03.782Z,99708.70
2022-08-02T14:13:06.296Z,99713.47
2022-08-02T14:14:15.910Z,99707.11
2022-08-02T14:15:12.801Z,99704.50
2022-08-02T14:16:15.447Z,99704.72
2022-08-02T14:17:17.780Z,99701.55
2022-08-02T14:18:19.981Z,99704.84
2022-08-02T14:19:22.718Z,99699.05
2022-08-02T14:20:29.955Z,99698.58
2022-08-02T14:21:29.565Z,99706.63
2022-08-02T14:22:33.797Z,99702.28
2022-08-02T14:23:49.943Z,99697.45
2022-08-02T14:24:40.416Z,99697.22
2022-08-02T14:25:43.235Z,99702.52
2022-08-02T14:26:47.159Z,99699.98
2022-08-02T14:27:49.388Z,99699.33
2022-08-02T14:28:51.475Z,99700.25
2022-08-02T14:29:53.944Z,99709.04
2022-08-02T14:30:56.306Z,99700.12
2022-08-02T14:31:58.683Z,99702.42
2022-08-02T14:33:01.092Z,99701.53
2022-08-02T14:34:03.290Z,99704.36
2022-08-02T14:35:06.151Z,99708.32
2022-08-02T14:36:08.596Z,99716.02
2022-08-02T14:38:26.634Z,99703.77
2022-08-02T14:39:42.735Z,99704.70
2022-08-02T14:40:35.159Z,99711.81
2022-08-02T14:41:58.261Z,99712.89
2022-08-02T14:42:41.853Z,99704.02
2022-08-02T14:43:44.389Z,99703.01
2022-08-02T14:44:46.908Z,99710.98
2022-08-02T14:45:49.106Z,99710.70
2022-08-02T14:46:52.006Z,99707.58
2022-08-02T14:47:55.620Z,99720.15
2022-08-02T14:48:58.308Z,99710.41
2022-08-02T14:50:00.710Z,99712.84
2022-08-02T14:51:03.008Z,99706.45
2022-08-02T14:52:05.237Z,99713.53
2022-08-02T14:53:12.202Z,99702.22
2022-08-02T14:54:12.205Z,99714.35
2022-08-02T14:55:17.333Z,99708.59
2022-08-02T14:56:20.004Z,99707.14
2022-08-02T14:57:22.433Z,99707.38
2022-08-02T14:58:26.447Z,99709.19
2022-08-02T14:59:29.783Z,99698.36
2022-08-02T15:00:33.485Z,99701.23
2022-08-02T15:01:36.743Z,99706.70
2022-08-02T15:02:39.727Z,99696.13
2022-08-02T15:03:43.814Z,99704.31
2022-08-02T15:04:46.351Z,99702.17
2022-08-02T15:05:48.559Z,99703.58
2022-08-02T15:06:51.690Z,99700.60
2022-08-02T15:07:53.943Z,99706.66
2022-08-02T15:08:56.256Z,99707.63
2022-08-02T15:09:58.639Z,99706.99
2022-08-02T15:11:00.893Z,99705.83
2022-08-02T15:12:05.650Z,99709.04
2022-08-02T15:13:07.686Z,99708.37
2022-08-02T15:14:11.661Z,99711.19
2022-08-02T15:15:14.383Z,99707.93
2022-08-02T15:16:16.995Z,99707.78
2022-08-02T15:17:19.372Z,99714.20
2022-08-02T15:18:21.745Z,99712.89
2022-08-02T15:19:41.655Z,99714.34
2022-08-02T15:20:32.115Z,99715.19
2022-08-02T15:21:41.346Z,99716.05
2022-08-02T15:22:39.867Z,99712.89
2022-08-02T15:23:43.450Z,99708.74
2022-08-02T15:24:46.723Z,99716.27
2022-08-02T15:25:50.678Z,99717.09
2022-08-02T15:26:53.853Z,99716.88
2022-08-02T15:27:56.046Z,99716.69
2022-08-02T15:28:57.996Z,99713.39
2022-08-02T15:30:00.865Z,99721.86
2022-08-02T15:31:04.177Z,99717.72
2022-08-02T15:32:06.714Z,99719.86
2022-08-02T15:33:09.018Z,99719.17
2022-08-02T15:34:11.678Z,99721.86
2022-08-02T15:35:14.181Z,99720.75
2022-08-02T15:36:17.612Z,99716.16
2022-08-02T15:37:21.548Z,99728.69
2022-08-02T15:38:23.990Z,99731.77
2022-08-02T15:39:27.998Z,99715.43
2022-08-02T15:40:30.786Z,99717.77
2022-08-02T15:41:33.227Z,99723.62
2022-08-02T15:42:35.600Z,99714.89
2022-08-02T15:44:01.002Z,99725.62
2022-08-02T15:44:42.166Z,99726.45
2022-08-02T15:45:44.458Z,99725.81
2022-08-02T15:46:46.791Z,99730.64
2022-08-02T15:47:50.697Z,99730.09
2022-08-02T15:48:53.091Z,99725.87
2022-08-02T15:49:55.358Z,99730.69
2022-08-02T15:50:57.684Z,99727.27
2022-08-02T15:51:59.963Z,99732.06
2022-08-02T15:53:02.165Z,99721.73
2022-08-02T15:54:04.554Z,99725.91
2022-08-02T15:55:07.633Z,99725.86
2022-08-02T15:56:13.048Z,99724.34
2022-08-02T15:57:14.725Z,99718.75
2022-08-02T15:58:17.962Z,99721.86
2022-08-02T15:59:21.026Z,99721.56
2022-08-02T16:00:23.419Z,99723.53
2022-08-02T16:01:25.931Z,99722.40
2022-08-02T16:02:30.003Z,99716.79
2022-08-02T16:03:32.473Z,99726.41
2022-08-02T16:04:34.936Z,99722.89
2022-08-02T16:05:37.984Z,99722.74
2022-08-02T16:06:41.298Z,99724.25
2022-08-02T16:07:44.072Z,99724.94
2022-08-02T16:08:54.794Z,99718.05
2022-08-02T16:09:50.838Z,99726.37
2022-08-02T16:10:53.226Z,99727.35
2022-08-02T16:11:55.634Z,99724.64
2022-08-02T16:12:58.032Z,99726.43
2022-08-02T16:14:00.531Z,99730.09
2022-08-02T16:15:04.446Z,99726.50
2022-08-02T16:16:06.869Z,99733.57
2022-08-02T16:17:09.169Z,99733.67
2022-08-02T16:18:11.837Z,99725.52
2022-08-02T16:19:46.061Z,99731.61
2022-08-02T16:20:19.733Z,99732.19
2022-08-02T16:21:23.969Z,99727.89
2022-08-02T16:22:26.513Z,99730.39
2022-08-02T16:24:01.374Z,99735.25
2022-08-02T16:24:33.102Z,99729.89
2022-08-02T16:25:40.073Z,99729.50
2022-08-02T16:26:39.859Z,99736.14
2022-08-02T16:28:06.150Z,99730.27
2022-08-02T16:28:46.651Z,99730.66
2022-08-02T16:29:49.371Z,99739.42
2022-08-02T16:31:04.993Z,99730.36
2022-08-02T16:31:56.170Z,99731.83
2022-08-02T16:32:58.576Z,99735.66
2022-08-02T16:34:00.805Z,99741.36
2022-08-02T16:35:07.838Z,99739.12
2022-08-02T16:36:08.023Z,99740.14
2022-08-02T16:37:10.556Z,99740.73
2022-08-02T16:38:13.494Z,99738.59
2022-08-02T16:39:15.874Z,99741.56
2022-08-02T16:40:20.201Z,99740.09
2022-08-02T16:41:23.211Z,99741.81
2022-08-02T16:42:27.553Z,99742.70
2022-08-02T16:43:30.060Z,99748.73
2022-08-02T16:44:34.144Z,99740.92
2022-08-02T16:45:36.390Z,99742.70
2022-08-02T16:46:38.808Z,99742.40
2022-08-02T16:47:44.205Z,99747.47
2022-08-02T16:48:50.855Z,99738.73
2022-08-02T16:50:06.538Z,99754.59
2022-08-02T16:50:54.164Z,99753.55
2022-08-02T16:51:56.666Z,99750.05
2022-08-02T16:52:59.256Z,99755.96
2022-08-02T16:54:01.539Z,99762.19
2022-08-02T16:55:08.471Z,99755.38
2022-08-02T16:56:09.295Z,99752.84
2022-08-02T16:57:11.996Z,99751.17
2022-08-02T16:58:15.964Z,99755.38
2022-08-02T16:59:19.236Z,99759.80
2022-08-02T17:00:21.911Z,99749.77
2022-08-02T17:01:27.473Z,99767.45
2022-08-02T17:02:30.222Z,99753.70
2022-08-02T17:03:55.515Z,99757.02
2022-08-02T17:04:36.710Z,99754.48
2022-08-02T17:05:56.592Z,99760.00
2022-08-02T17:06:47.986Z,99751.89
2022-08-02T17:08:10.340Z,99768.73
2022-08-02T17:08:54.608Z,99767.16
2022-08-02T17:10:01.791Z,99765.52
2022-08-02T17:11:03.725Z,99764.67
2022-08-02T17:12:06.769Z,99764.67
2022-08-02T17:13:11.688Z,99769.38
2022-08-02T17:14:14.225Z,99761.03
2022-08-02T17:16:26.348Z,99764.58
2022-08-02T17:17:34.266Z,99765.75
2022-08-02T17:18:33.912Z,99764.63
2022-08-02T17:19:38.195Z,99769.84
2022-08-02T17:20:40.586Z,99763.22
2022-08-02T17:21:44.255Z,99764.97
2022-08-02T17:22:46.560Z,99766.09
2022-08-02T17:24:04.980Z,99767.32
2022-08-02T17:24:53.424Z,99766.05
2022-08-02T17:25:55.711Z,99766.69
2022-08-02T17:26:58.317Z,99760.44
2022-08-02T17:28:01.323Z,99758.97
2022-08-02T17:29:14.120Z,99766.44
2022-08-02T17:30:11.282Z,99768.98
2022-08-02T17:31:13.727Z,99766.15
2022-08-02T17:32:18.490Z,99763.86
2022-08-02T17:33:21.337Z,99761.75
2022-08-02T17:34:26.896Z,99768.83
2022-08-02T17:35:52.402Z,99772.09
2022-08-02T17:36:32.307Z,99771.52
2022-08-02T17:37:38.692Z,99768.39
2022-08-02T17:38:50.240Z,99763.56
2022-08-02T17:39:52.009Z,99775.90
2022-08-02T17:40:48.756Z,99768.54
2022-08-02T17:41:51.585Z,99771.66
2022-08-02T17:42:54.355Z,99769.84
2022-08-02T17:43:57.166Z,99774.93
2022-08-02T17:45:06.769Z,99775.69
2022-08-02T17:46:04.965Z,99769.86
2022-08-02T17:47:11.594Z,99769.27
2022-08-02T17:48:14.800Z,99770.14
2022-08-02T17:49:17.741Z,99778.33
2022-08-02T17:50:21.216Z,99775.90
2022-08-02T17:52:15.993Z,99772.20
2022-08-02T17:52:50.797Z,99775.41
2022-08-02T17:53:36.215Z,99780.77
2022-08-02T17:54:38.227Z,99775.11
2022-08-02T17:55:42.724Z,99772.23
2022-08-02T17:56:49.551Z,99769.45
2022-08-02T17:57:55.631Z,99780.58
2022-08-02T17:58:56.505Z,99777.50
2022-08-02T18:00:04.149Z,99775.59
2022-08-02T18:01:23.650Z,99780.67
2022-08-02T18:02:15.690Z,99780.43
2022-08-02T18:03:18.127Z,99779.41
2022-08-02T18:04:26.873Z,99777.35
2022-08-02T18:05:40.207Z,99776.09
2022-08-02T18:06:31.656Z,99777.50
2022-08-02T18:07:53.026Z,99779.98
2022-08-02T18:08:39.793Z,99779.61
2022-08-02T18:09:43.978Z,99774.59
2022-08-02T18:10:47.077Z,99781.61
2022-08-02T18:11:52.495Z,99772.82
2022-08-02T18:12:56.156Z,99776.48
2022-08-02T18:13:58.952Z,99776.48
2022-08-02T18:15:01.350Z,99776.19
2022-08-02T18:16:05.850Z,99778.78
2022-08-02T18:17:10.389Z,99778.63
2022-08-02T18:18:14.909Z,99779.66
2022-08-02T18:19:18.857Z,99785.45
2022-08-02T18:20:21.668Z,99786.44
2022-08-02T18:21:25.315Z,99779.61
2022-08-02T18:22:28.994Z,99787.13
2022-08-02T18:23:31.599Z,99782.05
2022-08-02T18:24:36.065Z,99773.12
2022-08-02T18:25:45.855Z,99780.19
2022-08-02T18:26:45.187Z,99776.88
2022-08-02T18:27:49.382Z,99773.90
2022-08-02T18:28:51.810Z,99769.16
2022-08-02T18:30:04.584Z,99775.89
2022-08-02T18:30:59.294Z,99767.51
2022-08-02T18:32:04.082Z,99772.14
2022-08-02T18:34:00.517Z,99770.14
2022-08-02T18:34:10.505Z,99778.67
2022-08-02T18:35:12.637Z,99774.02
2022-08-02T18:36:24.570Z,99777.98
2022-08-02T18:37:19.541Z,99780.52
2022-08-02T18:38:24.267Z,99770.05
2022-08-02T18:39:27.431Z,99777.69
2022-08-02T18:40:32.121Z,99781.65
2022-08-02T18:41:34.905Z,99779.39
2022-08-02T18:42:37.267Z,99782.07
2022-08-02T18:43:43.721Z,99790.81
2022-08-02T18:44:44.651Z,99772.67
2022-08-02T18:46:07.304Z,99779.83
2022-08-02T18:46:53.238Z,99781.95
2022-08-02T18:47:57.080Z,99788.84
2022-08-02T18:49:14.643Z,99781.06
2022-08-02T18:50:09.731Z,99784.19
2022-08-02T18:51:14.215Z,99787.14
2022-08-02T18:52:30.675Z,99788.42
2022-08-02T18:53:28.008Z,99782.37
2022-08-02T18:54:30.597Z,99781.65
2022-08-02T18:55:59.852Z,99783.33
2022-08-02T18:56:34.880Z,99787.73
2022-08-02T18:58:02.296Z,99785.73
2022-08-02T18:58:43.429Z,99788.42
2022-08-02T18:59:47.355Z,99781.65
2022-08-02T19:00:52.007Z,99782.07
2022-08-02T19:01:54.551Z,99783.89
2022-08-02T19:02:57.336Z,99787.94
2022-08-02T19:04:01.026Z,99789.66
2022-08-02T19:05:06.883Z,99786.23
2022-08-02T19:06:09.641Z,99778.19
2022-08-02T19:07:11.848Z,99786.78
2022-08-02T19:08:15.239Z,99781.27
2022-08-02T19:09:18.461Z,99776.52
2022-08-02T19:10:21.254Z,99778.38
2022-08-02T19:11:25.454Z,99779.56
2022-08-02T19:12:29.558Z,99773.12
2022-08-02T19:13:32.220Z,99777.59
2022-08-02T19:14:34.312Z,99776.24
2022-08-02T19:15:37.112Z,99769.16
2022-08-02T19:16:39.563Z,99773.21
2022-08-02T19:17:54.026Z,99778.43
2022-08-02T19:18:47.580Z,99778.43
2022-08-02T19:19:51.143Z,99774.19
2022-08-02T19:20:56.235Z,99771.84
2022-08-02T19:22:15.776Z,99773.59
2022-08-02T19:23:03.288Z,99774.19
2022-08-02T19:24:08.095Z,99777.30
2022-08-02T19:25:15.955Z,99765.16
2022-08-02T19:26:15.973Z,99769.16
2022-08-02T19:27:25.808Z,99764.84
2022-08-02T19:28:26.238Z,99775.30
2022-08-02T19:29:43.376Z,99774.91
2022-08-02T19:30:31.568Z,99769.64
2022-08-02T19:31:34.731Z,99780.67
2022-08-02T19:32:58.422Z,99776.73
2022-08-02T19:34:06.368Z,99772.82
2022-08-02T19:34:47.956Z,99779.61
2022-08-02T19:36:01.632Z,99778.73
2022-08-02T19:36:55.651Z,99779.56
2022-08-02T19:38:07.601Z,99774.91
2022-08-02T19:39:11.149Z,99777.89
2022-08-02T19:40:16.465Z,99780.72
2022-08-02T19:41:22.229Z,99781.27
2022-08-02T19:42:24.635Z,99778.48
2022-08-02T19:44:26.159Z,99776.44
2022-08-02T19:44:31.309Z,99775.89
2022-08-02T19:45:50.044Z,99779.56
2022-08-02T19:46:37.967Z,99777.84
2022-08-02T19:47:42.215Z,99780.37
2022-08-02T19:48:47.437Z,99772.73
2022-08-02T19:49:50.241Z,99773.57
2022-08-02T19:51:00.610Z,99777.84
2022-08-02T19:52:00.059Z,99772.17
2022-08-02T19:53:03.150Z,99768.95
2022-08-02T19:54:05.663Z,99773.72
2022-08-02T19:56:00.943Z,99773.00
2022-08-02T19:56:21.283Z,99775.42
2022-08-02T19:57:19.398Z,99772.91
2022-08-02T19:59:26.707Z,99772.62
2022-08-02T20:00:32.255Z,99773.00
2022-08-02T20:01:38.408Z,99769.34
2022-08-02T20:02:39.036Z,99771.91
2022-08-02T20:03:52.417Z,99770.73
2022-08-02T20:04:49.951Z,99777.54
2022-08-02T20:05:50.666Z,99771.93
2022-08-02T20:06:52.811Z,99778.58
2022-08-02T20:07:56.608Z,99774.52
2022-08-02T20:09:01.390Z,99782.15
2022-08-02T20:10:04.695Z,99778.58
2022-08-02T20:11:07.225Z,99773.41
2022-08-02T20:12:11.839Z,99774.25
2022-08-02T20:13:14.257Z,99775.06
2022-08-02T20:14:17.461Z,99777.89
2022-08-02T20:15:21.987Z,99774.31
2022-08-02T20:16:27.703Z,99775.66
2022-08-02T20:17:28.915Z,99769.45
2022-08-02T20:18:31.992Z,99776.48
2022-08-02T20:19:34.216Z,99771.78
2022-08-02T20:20:38.221Z,99775.66
2022-08-02T20:21:42.827Z,99771.93
2022-08-02T20:22:45.424Z,99771.98
2022-08-02T20:23:49.648Z,99774.91
2022-08-02T20:24:52.995Z,99773.80
2022-08-02T20:25:55.235Z,99774.52
2022-08-02T20:26:59.770Z,99776.14
2022-08-02T20:28:03.085Z,99774.77
2022-08-02T20:29:05.193Z,99772.53
2022-08-02T20:30:08.709Z,99773.66
2022-08-02T20:31:12.936Z,99776.14
2022-08-02T20:32:15.792Z,99770.32
2022-08-02T20:33:22.202Z,99775.59
2022-08-02T20:34:22.908Z,99772.82
2022-08-02T20:35:27.302Z,99777.66
2022-08-02T20:36:30.074Z,99768.05
2022-08-02T20:38:37.028Z,99771.42
2022-08-02T20:39:42.726Z,99773.36
2022-08-02T20:40:44.240Z,99778.88
2022-08-02T20:41:52.957Z,99764.33
2022-08-02T20:42:53.624Z,99764.33
2022-08-02T20:43:56.284Z,99772.14
2022-08-02T20:44:58.899Z,99772.82
2022-08-02T20:46:01.341Z,99765.45
2022-08-02T20:47:03.645Z,99771.36
2022-08-02T20:48:06.959Z,99766.86
2022-08-02T20:49:17.469Z,99772.08
2022-08-02T20:50:14.728Z,99766.47
2022-08-02T20:51:18.703Z,99770.53
2022-08-02T20:52:24.520Z,99767.75
2022-08-02T20:53:29.800Z,99766.34
2022-08-02T20:54:32.147Z,99768.83
2022-08-02T20:55:42.815Z,99772.23
2022-08-02T20:56:45.362Z,99771.13
2022-08-02T20:58:00.659Z,99770.28
2022-08-02T20:58:53.738Z,99774.09
2022-08-02T20:59:57.977Z,99768.58
2022-08-02T21:01:00.927Z,99781.61
2022-08-02T21:02:03.432Z,99774.59
2022-08-02T21:03:06.811Z,99772.58
2022-08-02T21:04:16.312Z,99778.14
2022-08-02T21:05:17.259Z,99785.45
2022-08-02T21:06:18.824Z,99781.61
2022-08-02T21:07:23.061Z,99778.19
2022-08-02T21:08:26.295Z,99774.55
2022-08-02T21:09:52.575Z,99774.81
2022-08-02T21:10:33.630Z,99774.19
2022-08-02T21:11:36.019Z,99779.56
2022-08-02T21:12:38.366Z,99776.70
2022-08-02T21:13:46.423Z,99782.97
2022-08-02T21:14:47.004Z,99775.41
2022-08-02T21:15:51.683Z,99782.15
2022-08-02T21:16:54.355Z,99775.06
2022-08-02T21:18:03.804Z,99782.42
2022-08-02T21:19:01.596Z,99778.23
2022-08-02T21:20:04.684Z,99780.04
2022-08-02T21:21:08.904Z,99779.17
2022-08-02T21:22:11.530Z,99786.98
2022-08-02T21:23:19.772Z,99786.83
2022-08-02T21:24:18.766Z,99789.76
2022-08-02T21:25:23.892Z,99791.11
2022-08-02T21:26:31.274Z,99781.17
2022-08-02T21:27:51.788Z,99790.50
2022-08-02T21:28:44.913Z,99790.50
2022-08-02T21:29:40.381Z,99791.80
2022-08-02T21:30:42.683Z,99787.52
2022-08-02T21:31:45.318Z,99789.52
2022-08-02T21:32:49.553Z,99781.41
2022-08-02T21:33:57.325Z,99781.61
2022-08-02T21:34:57.411Z,99779.08
2022-08-02T21:35:59.590Z,99785.03
2022-08-02T21:37:09.915Z,99781.36
2022-08-02T21:38:06.718Z,99779.22
2022-08-02T21:39:10.817Z,99780.97
2022-08-02T21:40:14.002Z,99785.64
2022-08-02T21:41:19.692Z,99790.05
2022-08-02T21:42:22.744Z,99784.98
2022-08-02T21:43:35.410Z,99793.50
2022-08-02T21:44:30.846Z,99781.27
2022-08-02T21:45:33.106Z,99792.93
2022-08-02T21:46:36.289Z,99787.42
2022-08-02T21:47:38.816Z,99793.75
2022-08-02T21:48:41.241Z,99788.91
2022-08-02T21:50:10.437Z,99789.31
2022-08-02T21:50:48.122Z,99785.33
2022-08-02T21:51:52.208Z,99789.56
2022-08-02T21:52:54.421Z,99791.66
2022-08-02T21:54:16.854Z,99792.68
2022-08-02T21:55:00.606Z,99790.69
2022-08-02T21:56:03.649Z,99787.90
2022-08-02T21:57:08.088Z,99787.31
2022-08-02T21:58:12.218Z,99784.20
2022-08-02T21:59:16.236Z,99796.39
2022-08-02T22:00:28.856Z,99792.98
2022-08-02T22:01:24.612Z,99798.05
2022-08-02T22:02:30.736Z,99789.16
2022-08-02T22:03:31.973Z,99803.70
2022-08-02T22:04:35.231Z,99795.66
2022-08-02T22:05:37.594Z,99796.20
2022-08-02T22:06:41.802Z,99794.09
2022-08-02T22:07:45.804Z,99794.23
2022-08-02T22:08:48.470Z,99804.82
2022-08-02T22:09:52.072Z,99803.16
2022-08-02T22:10:55.203Z,99809.94
2022-08-02T22:11:57.423Z,99799.03
2022-08-02T22:12:59.811Z,99805.41
2022-08-02T22:14:02.033Z,99805.59
2022-08-02T22:15:06.478Z,99813.34
2022-08-02T22:16:10.801Z,99802.33
2022-08-02T22:17:13.789Z,99807.08
2022-08-02T22:18:16.340Z,99812.22
2022-08-02T22:19:20.528Z,99809.94
2022-08-02T22:20:24.132Z,99808.23
2022-08-02T22:21:32.401Z,99804.57
2022-08-02T22:22:31.280Z,99814.73
2022-08-02T22:23:38.946Z,99810.66
2022-08-02T22:24:37.819Z,99813.48
2022-08-02T22:25:40.038Z,99817.44
2022-08-02T22:26:43.004Z,99807.00
2022-08-02T22:28:34.794Z,99811.64
2022-08-02T22:28:59.513Z,99810.84
2022-08-02T22:29:56.145Z,99813.63
2022-08-02T22:31:00.460Z,99813.63
2022-08-02T22:32:03.313Z,99790.80
2022-08-02T22:33:14.837Z,99809.25
2022-08-02T22:34:26.557Z,99803.16
2022-08-02T22:35:15.200Z,99805.41
2022-08-02T22:36:19.336Z,99804.58
2022-08-02T22:38:27.899Z,99799.68
2022-08-02T22:39:30.150Z,99803.74
2022-08-02T22:40:34.519Z,99803.77
2022-08-02T22:42:00.233Z,99796.67
2022-08-02T22:42:42.271Z,99802.19
2022-08-02T22:43:44.413Z,99804.87
2022-08-02T22:44:46.775Z,99805.01
2022-08-02T22:45:50.806Z,99797.11
2022-08-02T22:46:53.251Z,99797.25
2022-08-02T22:47:55.452Z,99805.98
2022-08-02T22:48:59.388Z,99796.53
2022-08-02T22:50:04.756Z,99802.91
2022-08-02T22:51:07.371Z,99794.42
2022-08-02T22:52:10.745Z,99800.48
2022-08-02T22:53:13.168Z,99802.19
2022-08-02T22:54:17.311Z,99800.91
2022-08-02T22:55:19.575Z,99802.76
2022-08-02T22:56:24.486Z,99797.44
2022-08-02T22:57:31.135Z,99794.46
2022-08-02T22:58:31.400Z,99790.95
2022-08-02T22:58:37.743Z,99768.69
2022-08-02T22:59:05.533Z,99774.61
2022-08-02T22:59:08.139Z,99771.42
2022-08-02T22:59:09.598Z,99801.20
2022-08-02T22:59:39.369Z,99795.47
2022-08-02T23:00:38.466Z,99794.92
2022-08-02T23:01:40.919Z,99786.42
2022-08-02T23:02:43.273Z,99791.64
2022-08-02T23:03:47.333Z,99794.75
2022-08-02T23:04:49.387Z,99787.11
2022-08-02T23:05:51.791Z,99785.36
2022-08-02T23:06:54.135Z,99790.73
2022-08-02T23:07:56.703Z,99792.47
2022-08-02T23:08:58.890Z,99782.83
2022-08-02T23:10:01.115Z,99782.83
2022-08-02T23:11:04.110Z,99792.72
2022-08-02T23:12:06.635Z,99802.91
2022-08-02T23:13:10.386Z,99800.77
2022-08-02T23:14:12.715Z,99796.67
2022-08-02T23:15:14.913Z,99801.89
2022-08-02T23:16:20.529Z,99796.02
2022-08-02T23:17:23.130Z,99794.92
2022-08-02T23:18:25.773Z,99801.84
2022-08-02T23:19:28.046Z,99810.03
2022-08-02T23:20:30.482Z,99808.50
2022-08-02T23:22:01.191Z,99809.77
2022-08-02T23:22:37.453Z,99809.34
2022-08-02T23:23:39.735Z,99809.91
2022-08-02T23:24:42.401Z,99804.67
2022-08-02T23:25:44.859Z,99801.96
2022-08-02T23:26:47.121Z,99810.44
2022-08-02T23:27:50.690Z,99808.63
2022-08-02T23:28:53.492Z,99811.18
2022-08-02T23:29:55.882Z,99811.04
2022-08-02T23:30:58.026Z,99813.14
2022-08-02T23:32:00.349Z,99812.85
2022-08-02T23:33:03.160Z,99807.78
2022-08-02T23:34:05.415Z,99811.88
2022-08-02T23:35:08.547Z,99814.55
2022-08-02T23:36:10.696Z,99817.92
2022-08-02T23:37:12.952Z,99814.27
2022-08-02T23:38:15.089Z,99819.92
2022-08-02T23:39:17.515Z,99820.06
2022-08-02T23:40:38.818Z,99815.22
2022-08-02T23:41:24.223Z,99813.55
2022-08-02T23:42:26.543Z,99808.77
2022-08-02T23:43:28.824Z,99821.02
2022-08-02T23:44:31.013Z,99820.88
2022-08-02T23:45:35.541Z,99818.91
2022-08-02T23:46:41.419Z,99812.25
2022-08-02T23:47:43.845Z,99817.36
2022-08-02T23:48:46.019Z,99820.89
2022-08-02T23:49:48.310Z,99821.59
2022-08-02T23:50:50.613Z,99813.98
2022-08-02T23:51:54.029Z,99820.18
2022-08-02T23:52:57.950Z,99818.63
2022-08-02T23:54:00.113Z,99825.56
2022-08-02T23:55:02.376Z,99818.77
2022-08-02T23:56:05.429Z,99822.59
2022-08-02T23:57:19.806Z,99825.02
2022-08-02T23:58:12.009Z,99826.95
2022-08-02T23:59:14.429Z,99827.27
